Texas Logo

Cypress, TX Single Family Real Estate Listings

1498 Total Real Estate Listings * Click on table heading to sort
Date Posted Property Type Style Address Price Living Area Lot Size Price/Sq Ft.
2018-02-17 Single Family Traditional 17807 Olde Oaks Estate Cypress, TX 77433 $393,996 2,624 sq. ft. 5,663 sq. ft. $150
2018-02-17 Single Family Traditional 17703 Olde Oaks Estate Court Cypress, TX 77433 $415,000 3,333 sq. ft. 6,098 sq. ft. $125
2018-02-17 Single Family Traditional 17803 Olde Oaks Estate Cypress, TX 77433 $426,502 2,224 sq. ft. 6,970 sq. ft. $192
2018-02-17 Single Family Traditional 15418 Evergreen Knoll Lane Cypress, TX 77433 $225,000 2,055 sq. ft. 7,841 sq. ft. $109
2018-02-17 Single Family Contemporary/Modern 8531 Powell Ridge Drive Cypress, TX 77433 $325,000 3,846 sq. ft. 8,276 sq. ft. $84
2018-02-17 Single Family Traditional 20302 Fossil Valley Cypress, TX 77433 $270,587 2,492 sq. ft. $109
2018-02-17 Single Family Contemporary/Modern 18602 Shavano Court Cypress, TX 77433 $230,000 2,980 sq. ft. 8,276 sq. ft. $77
2018-02-17 Single Family Traditional 13615 Indigo Spires Drive Cypress, TX 77429 $319,000 3,224 sq. ft. 9,148 sq. ft. $99
2018-02-16 Single Family English; Traditional 13407 Skyward Ridge Court Cypress, TX 77429 $460,000 4,343 sq. ft. 13,068 sq. ft. $106
2018-02-16 Single Family Traditional 8515 Powell Ridge Drive Cypress, TX 77433 $309,000 3,267 sq. ft. 7,841 sq. ft. $95
2018-02-16 Single Family Victorian 9642 Caddo Ridge Ln Cypress, TX 77433 $371,668 2,734 sq. ft. $136
2018-02-16 Single Family Traditional 18203 Doral Rock Court Court Cypress, TX 77433 $259,000 2,311 sq. ft. 8,712 sq. ft. $112
2018-02-16 Single Family Traditional 19102 Panther Cave Court Cypress, TX 77433 $323,900 2,187 sq. ft. 8,712 sq. ft. $148
2018-02-16 Single Family Traditional 20622 Riley Copper Drive Cypress, TX 77433 $339,990 3,050 sq. ft. 6,970 sq. ft. $111
2018-02-16 Single Family Traditional 10511 Paula Bluff Ln Cypress, TX 77433 $304,990 1,931 sq. ft. 6,970 sq. ft. $158
2018-02-16 Single Family Traditional 19107 Timberwood Run Dr Cypress, TX 77433 $357,594 2,528 sq. ft. 7,405 sq. ft. $141
2018-02-16 Single Family Traditional 19307 Maifest Drive Cypress, TX 77433 $499,000 3,802 sq. ft. $131
2018-02-16 Single Family Traditional 19310 Stanton Lake Drive Cypress, TX 77433 $370,000 3,734 sq. ft. 8,276 sq. ft. $99
2018-02-16 Single Family Traditional 20243 Stanton Lake Drive Cypress, TX 77433 $344,900 2,992 sq. ft. 13,504 sq. ft. $115
2018-02-16 Single Family Traditional 9522 Solano Point Lane Cypress, TX 77433 $366,995 3,011 sq. ft. 0 sq. ft. $122
2018-02-16 Single Family Traditional 17815 Dappled Walk Way Cypress, TX 77429 $285,000 2,799 sq. ft. 5,663 sq. ft. $102
2018-02-16 Single Family Traditional 9518 Solano Point Lane Cypress, TX 77433 $439,995 4,024 sq. ft. 0 sq. ft. $109
2018-02-16 Single Family Traditional 14718 Red Bayberry Court Cypress, TX 77433 $325,000 3,046 sq. ft. 6,534 sq. ft. $107
2018-02-16 Single Family Traditional 16106 Panther Cave Court Cypress, TX 77433 $349,900 2,504 sq. ft. 10,890 sq. ft. $140
2018-02-16 Single Family Traditional 20226 Tarpon Bay Lane Cypress, TX 77433 $384,995 3,442 sq. ft. 0 sq. ft. $112
2018-02-16 Single Family Traditional 20402 Prospect Canyon Lane Cypress, TX 77433 $259,900 2,912 sq. ft. 9,148 sq. ft. $89
2018-02-16 Single Family Traditional 12502 Oak Plaza Drive Cypress, TX 77429 $249,900 2,884 sq. ft. 19,166 sq. ft. $87
2018-02-16 Single Family Traditional 19311 Egret Wood Way Cypress, TX 77429 $212,000 3,250 sq. ft. 8,276 sq. ft. $65
2018-02-15 Single Family Traditional 20502 Blue Hyacinth Drive Cypress, TX 77433 $218,500 1,600 sq. ft. 6,534 sq. ft. $137
2018-02-15 Single Family Traditional 13006 Yorkmont Drive Cypress, TX 77429 $259,900 2,582 sq. ft. 6,970 sq. ft. $101
2018-02-15 Single Family Traditional 20247 Herrin Landing Cypress, TX 77433 $337,995 2,522 sq. ft. 0 sq. ft. $134
2018-02-15 Single Family Traditional 11219 Jadestone Creek Lane Cypress, TX 77433 $232,450 2,088 sq. ft. 7,405 sq. ft. $111
2018-02-15 Single Family Traditional 14926 Telge Lake Trail Cypress, TX 77429 $299,000 2,603 sq. ft. 9,583 sq. ft. $115
2018-02-15 Single Family Traditional 12510 Lakecrest Circle Cypress, TX 77429 $228,000 2,334 sq. ft. 8,712 sq. ft. $98
2018-02-15 Single Family Traditional 7318 Village Lake Drive Cypress, TX 77433 $164,000 1,890 sq. ft. 4,356 sq. ft. $87
2018-02-15 Single Family Contemporary/Modern 7310 Cypress Breeze Court Cypress, TX 77433 $244,900 2,576 sq. ft. 11,326 sq. ft. $95
2018-02-15 Single Family Traditional 20903 Sedgefield Meadow Circle Cypress, TX 77433 $325,000 2,993 sq. ft. 12,197 sq. ft. $109
2018-02-15 Single Family Traditional 20411 Fairfield Park Way Cypress, TX 77433 $229,000 2,208 sq. ft. 6,098 sq. ft. $104
2018-02-15 Single Family Traditional 20319 Aspen Manor Lane Cypress, TX 77433 $295,000 2,265 sq. ft. 6,098 sq. ft. $130
2018-02-15 Single Family Traditional 12718 Devotion Lane Cypress, TX 77429 $439,990 4,194 sq. ft. $105
2018-02-15 Single Family Traditional 20211 Rusty Rock Lane Cypress, TX 77433 $340,000 3,251 sq. ft. 9,583 sq. ft. $105
2018-02-15 Single Family Traditional 16219 Morning Pine Trail Cypress, TX 77433 $419,900 3,776 sq. ft. 11,326 sq. ft. $111
2018-02-15 Single Family Traditional 7819 Pasture Spring Lane Cypress, TX 77433 $149,900 1,600 sq. ft. 5,663 sq. ft. $94
2018-02-15 Single Family Traditional 16312 14th Street Street Cypress, TX 77429 $119,000 1,400 sq. ft. 20,038 sq. ft. $85
2018-02-14 Single Family Traditional 14202 Bella Drive Cypress, TX 77429 $168,500 1,757 sq. ft. 7,841 sq. ft. $96
2018-02-14 Single Family Traditional 21106 Heartwood Oak Trl Cypress, TX 77433 $368,900 3,670 sq. ft. 10,890 sq. ft. $101
2018-02-14 Single Family Traditional 7243 Mountain Prairie Drive Cypress, TX 77433 $267,995 2,825 sq. ft. $95
2018-02-14 Single Family Traditional 12603 Whistling Wind Lane Cypress, TX 77429 $219,500 2,343 sq. ft. 8,712 sq. ft. $94
2018-02-14 Single Family Traditional 11322 Terrebone Drive Cypress, TX 77429 $164,000 1,737 sq. ft. 6,970 sq. ft. $94
2018-02-14 Single Family Traditional 19126 Panther Cave Court Cypress, TX 77433 $315,900 2,188 sq. ft. 6,970 sq. ft. $144
2018-02-14 Single Family Traditional 15206 Sycamore Leaf Lane Cypress, TX 77429 $239,000 2,459 sq. ft. 6,970 sq. ft. $97
2018-02-14 Single Family Traditional 12622 Campsite Trail Cypress, TX 77429 $300,000 2,736 sq. ft. 10,019 sq. ft. $110
2018-02-14 Single Family Traditional 9503 Whitebark Pine Way Cypress, TX 77433 $399,960 3,482 sq. ft. 10,019 sq. ft. $115
2018-02-14 Single Family Traditional 26835 Granite Valley Lane Cypress, TX 77433 $279,000 2,674 sq. ft. 6,534 sq. ft. $104
2018-02-14 Single Family Traditional 20427 Regal Shadow Lane Cypress, TX 77433 $422,481 3,308 sq. ft. 10,454 sq. ft. $128
2018-02-14 Single Family Traditional 18526 Solace Vista Drive Cypress, TX 77433 $229,900 2,618 sq. ft. 8,712 sq. ft. $88
2018-02-14 Single Family Traditional 11227 Bluewater Lagoon Cypress, TX 77433 $356,826 2,409 sq. ft. 6,098 sq. ft. $148
2018-02-13 Single Family Traditional 8219 Malago Point Drive Cypress, TX 77433 $169,000 1,545 sq. ft. 4,356 sq. ft. $109
2018-02-13 Single Family Traditional 15419 Stable Bend Circle Cypress, TX 77429 $438,000 4,024 sq. ft. 10,454 sq. ft. $109
2018-02-13 Single Family Traditional 8415 Roland Canyon Drive Cypress, TX 77433 $299,900 3,187 sq. ft. 8,276 sq. ft. $94
2018-02-13 Single Family Traditional 9931 Double Bayou Court Cypress, TX 77433 $439,900 2,920 sq. ft. 19,166 sq. ft. $151
2018-02-13 Single Family Traditional 16119 Lower Pecos Drive Cypress, TX 77433 $306,890 2,522 sq. ft. 6,534 sq. ft. $122
2018-02-13 Single Family Traditional 20134 Wedgewood Grove Cypress, TX 77433 $341,811 2,634 sq. ft. $130
2018-02-13 Single Family Traditional 13010 Regency Oak Lane Cypress, TX 77429 $239,900 2,581 sq. ft. 10,019 sq. ft. $93
2018-02-13 Single Family Traditional 12010 Forest Moon Dr Drive Cypress, TX 77433 $329,000 3,292 sq. ft. 7,405 sq. ft. $100
2018-02-13 Single Family Traditional 12927 Youngfield Drive Cypress, TX 77429 $296,000 2,922 sq. ft. 10,890 sq. ft. $101
2018-02-13 Single Family Traditional 7714 Sunburst Trail Drive Cypress, TX 77433 $148,000 1,590 sq. ft. 4,792 sq. ft. $93
2018-02-13 Single Family Traditional 20326 Pioneer Ridge Drive Cypress, TX 77433 $135,000 1,364 sq. ft. 4,792 sq. ft. $99
2018-02-13 Single Family Traditional 15023 Scarlet Finch Way Cypress, TX 77429 $342,000 2,964 sq. ft. 8,712 sq. ft. $115
2018-02-12 Single Family Traditional 19807 Tacoma Bluff Drive Cypress, TX 77433 $245,000 2,087 sq. ft. 6,970 sq. ft. $117
2018-02-12 Single Family Traditional 17827 Circular Quay Lane Cypress, TX 77429 $407,000 3,244 sq. ft. 8,712 sq. ft. $125
2018-02-12 Single Family Traditional 15303 Canby Point Lane Cypress, TX 77433 $269,900 3,029 sq. ft. 8,276 sq. ft. $89
2018-02-12 Single Family Traditional 22115 Dancing Green Drive Cypress, TX 77433 $349,990 3,400 sq. ft. 8,712 sq. ft. $103
2018-02-12 Single Family Traditional 13415 Lakecrest Drive Cypress, TX 77429 $229,900 2,331 sq. ft. 9,583 sq. ft. $99
2018-02-12 Single Family Traditional 17926 Oak Park Bend Lane Cypress, TX 77433 $292,675 3,416 sq. ft. 12,632 sq. ft. $86
2018-02-12 Single Family Traditional 19619 Indigo Bush Drive Cypress, TX 77433 $281,000 1,975 sq. ft. 5,663 sq. ft. $142
2018-02-12 Single Family Traditional 19518 Tacoma Springs Drive Cypress, TX 77429 $245,000 2,782 sq. ft. 5,227 sq. ft. $88
2018-02-12 Single Family Traditional 19703 Indigo Bush Drive Cypress, TX 77433 $300,000 2,416 sq. ft. 5,663 sq. ft. $124
2018-02-12 Single Family Traditional 18407 Ariat Cypress, TX 77429 $276,892 2,265 sq. ft. $122
2018-02-11 Single Family Other Style; Traditional 16839 Seminole Ridge Drive Cypress, TX 77433 $367,547 2,288 sq. ft. 7,405 sq. ft. $161
2018-02-11 Single Family Traditional 15111 By The Lake Way Cypress, TX 77429 $195,000 2,621 sq. ft. 6,098 sq. ft. $74
2018-02-11 Single Family Traditional 16226 Morning Pine Trl Cypress, TX 77433 $430,000 4,341 sq. ft. 14,810 sq. ft. $99
2018-02-10 Single Family Traditional 15726 Summer Maple Trail Cypress, TX 77429 $215,000 1,948 sq. ft. 8,712 sq. ft. $110
2018-02-10 Single Family Traditional 14322 Marin Drive Cypress, TX 77429 $307,500 3,306 sq. ft. 8,712 sq. ft. $93
2018-02-10 Single Family Traditional 10027 Kirby Ranch Court Cypress, TX 77433 $399,000 3,225 sq. ft. $124
2018-02-09 Single Family Traditional 10207 Mayberry Heights Drive Cypress, TX 77433 $433,000 3,243 sq. ft. 8,276 sq. ft. $134
2018-02-09 Single Family Ranch 16210 Lee Way Drive Cypress, TX 77429 $215,000 1,595 sq. ft. 11,326 sq. ft. $135
2018-02-09 Single Family Traditional 12322 Johns Purchase Court Cypress, TX 77433 $395,000 4,049 sq. ft. 13,504 sq. ft. $98
2018-02-09 Single Family Traditional 21615 Winter Violet Court Cypress, TX 77433 $430,000 3,048 sq. ft. 8,712 sq. ft. $141
2018-02-09 Single Family Colonial 12503 Ravensway Drive Cypress, TX 77429 $234,900 2,468 sq. ft. 11,761 sq. ft. $95
2018-02-09 Single Family Traditional 19822 Dayton Springs Drive Cypress, TX 77429 $229,500 2,156 sq. ft. 6,970 sq. ft. $106
2018-02-09 Single Family Traditional 19814 Hamlet Shadow Lane Cypress, TX 77433 $319,990 3,049 sq. ft. 6,098 sq. ft. $105
2018-02-09 Single Family Traditional 22006 Canary Yellow Circle Cypress, TX 77433 $345,000 3,927 sq. ft. 9,148 sq. ft. $88
2018-02-09 Single Family Traditional 20702 Dickinson Manor Lane Cypress, TX 77433 $179,000 2,650 sq. ft. 7,841 sq. ft. $68
2018-02-09 Single Family Traditional 11607 Breckan Court Cypress, TX 77429 $390,000 3,477 sq. ft. 7,841 sq. ft. $112
2018-02-09 Single Family Traditional 14126 Sundial Stone Lane Cypress, TX 77429 $375,000 4,065 sq. ft. 7,841 sq. ft. $92
2018-02-09 Single Family Ranch; Traditional 20119 Emily Anne Court Cypress, TX 77433 $260,000 2,416 sq. ft. 8,276 sq. ft. $108
2018-02-09 Single Family Traditional 20331 Aspen Manor Lane Cypress, TX 77433 $434,337 3,191 sq. ft. $136
2018-02-09 Single Family Contemporary/Modern 14623 Honeycomb Lane Cypress, TX 77429 $129,998 2,120 sq. ft. 9,148 sq. ft. $61
2018-02-09 Single Family Traditional 15202 Zenith Glen Lane Cypress, TX 77429 $260,000 2,679 sq. ft. 7,405 sq. ft. $97
2018-02-09 Single Family Traditional 18614 White Ash Lane Cypress, TX 77433 $199,000 2,507 sq. ft. 5,227 sq. ft. $79
2018-02-08 Single Family Traditional 19922 Laurel Trail Drive Cypress, TX 77433 $134,500 1,410 sq. ft. 4,356 sq. ft. $95
2018-02-08 Single Family Traditional 26914 Autumn Timbers Lane Cypress, TX 77433 $330,000 3,167 sq. ft. 7,405 sq. ft. $104
2018-02-08 Single Family Traditional 9510 Jayci Hills Lane Cypress, TX 77433 $285,000 2,200 sq. ft. 6,534 sq. ft. $130
2018-02-08 Single Family Traditional 14135 Sunrise Arbor Lane Lane Cypress, TX 77429 $309,995 2,762 sq. ft. $112
2018-02-08 Single Family Ranch; Traditional 19839 Kelsey Gap Court Cypress, TX 77433 $255,000 2,220 sq. ft. 5,663 sq. ft. $115
2018-02-08 Single Family Traditional 15318 Chestnut Falls Drive Cypress, TX 77433 $195,000 1,966 sq. ft. 6,534 sq. ft. $99
2018-02-08 Single Family Traditional 15111 Trumpet Vine Lane Cypress, TX 77433 $220,000 2,304 sq. ft. 6,534 sq. ft. $95
2018-02-08 Single Family Traditional 16211 Blossom Field Court Cypress, TX 77433 $235,000 2,455 sq. ft. 7,405 sq. ft. $96
2018-02-08 Single Family Traditional 14819 Orange Bloom Court Cypress, TX 77433 $240,000 2,128 sq. ft. 6,534 sq. ft. $113
2018-02-08 Single Family Traditional 14818 Bronze Finch Drive Cypress, TX 77433 $360,000 3,430 sq. ft. 7,841 sq. ft. $105
2018-02-07 Single Family Traditional 18035 Alora Springs Cypress, TX 77433 $275,000 2,295 sq. ft. 5,663 sq. ft. $120
2018-02-07 Single Family Traditional 16014 Elmwood Manor Drive Cypress, TX 77429 $349,000 3,372 sq. ft. 8,276 sq. ft. $104
2018-02-07 Single Family Contemporary/Modern 18214 Canary Bluff Lane Cypress, TX 77433 $237,500 2,729 sq. ft. 4,792 sq. ft. $87
2018-02-07 Single Family Traditional 21318 Cypress Live Oak Drive Cypress, TX 77433 $259,450 2,434 sq. ft. $107
2018-02-07 Single Family Traditional 21319 Cypress Burr Oak Drive Cypress, TX 77433 $262,950 2,700 sq. ft. $97
2018-02-07 Single Family Traditional 21327 Cypress Burr Oak Drive Cypress, TX 77433 $268,950 2,434 sq. ft. $110
2018-02-07 Single Family Traditional 21314 Cypress Live Oak Drive Cypress, TX 77433 $234,450 2,012 sq. ft. $117
2018-02-07 Single Family Traditional 21334 Cypress Live Oak Drive Cypress, TX 77433 $249,950 2,412 sq. ft. $104
2018-02-07 Single Family Traditional 21303 Cypress Burr Oak Drive Cypress, TX 77433 $288,450 2,885 sq. ft. $100
2018-02-07 Single Family Traditional 21323 Cypress Burr Oak Drive Cypress, TX 77433 $232,950 2,137 sq. ft. $109
2018-02-07 Single Family Traditional 21326 Cypress Live Oak Drive Cypress, TX 77433 $232,950 2,137 sq. ft. $109
2018-02-07 Single Family Traditional 7327 Cypress Pin Oak Drive Cypress, TX 77433 $232,950 2,137 sq. ft. $109
2018-02-07 Single Family Traditional 7227 Cypress Pin Oak Drive Cypress, TX 77433 $232,950 2,160 sq. ft. $108
2018-02-07 Single Family Traditional 21322 Cypress Live Oak Drive Cypress, TX 77433 $233,950 2,160 sq. ft. $108
2018-02-07 Single Family Traditional 18035 Billabong Crescent Court Cypress, TX 77429 $399,900 4,150 sq. ft. 7,841 sq. ft. $96
2018-02-07 Single Family Traditional 14831 Appian Oak Street Cypress, TX 77429 $274,995 2,843 sq. ft. 7,405 sq. ft. $97
2018-02-07 Single Family Traditional 7307 Cypress Pin Oak Drive Cypress, TX 77433 $276,950 2,885 sq. ft. $96
2018-02-07 Single Family Traditional 7327 Cypress Black Oak Drive Cypress, TX 77433 $281,452 2,885 sq. ft. $98
2018-02-07 Single Family Traditional 21330 Cypress Live Oak Drive Cypress, TX 77433 $284,950 2,885 sq. ft. $99
2018-02-07 Single Family Traditional 7319 Cypress Pin Oak Drive Cypress, TX 77433 $289,450 2,885 sq. ft. $100
2018-02-07 Single Family Traditional 7715 Sapulpa Ln Cypress, TX 77433 $265,000 3,458 sq. ft. 6,534 sq. ft. $77
2018-02-07 Single Family Traditional 13511 Barons Lake Lane Cypress, TX 77429 $239,900 2,406 sq. ft. 6,098 sq. ft. $100
2018-02-07 Single Family Traditional 15411 Signal Ridge Way Cypress, TX 77429 $229,990 2,351 sq. ft. 8,276 sq. ft. $98
2018-02-07 Single Family Traditional 15514 Stable Park Drive Cypress, TX 77429 $409,000 4,012 sq. ft. 10,019 sq. ft. $102
2018-02-06 Single Family Traditional 7411 Cypress Pin Oak Drive Cypress, TX 77433 $276,950 2,885 sq. ft. $96
2018-02-06 Single Family Traditional 7314 Cypress Shumard Oak Drive Cypress, TX 77433 $249,950 2,412 sq. ft. $104
2018-02-06 Single Family Traditional 7311 Cypress Shumard Oak Drive Cypress, TX 77433 $276,950 2,885 sq. ft. $96
2018-02-06 Single Family Traditional 7315 Cypress Shumard Oak Drive Cypress, TX 77433 $233,950 2,160 sq. ft. $108
2018-02-06 Single Family Traditional 7307 Cypress Shumard Oak Drive Cypress, TX 77433 $237,950 2,367 sq. ft. $101
2018-02-06 Single Family Traditional 21323 Cypress Red Oak Drive Cypress, TX 77433 $262,950 2,700 sq. ft. $97
2018-02-06 Single Family Traditional 7226 Cypress Shumard Oak Drive Cypress, TX 77433 $200,450 1,652 sq. ft. 5,663 sq. ft. $121
2018-02-06 Single Family Traditional 7415 Cypress Pin Oak Drive Cypress, TX 77433 $220,450 2,012 sq. ft. $110
2018-02-06 Single Family Traditional 7210 Cypress Shumard Oak Drive Cypress, TX 77433 $212,950 1,652 sq. ft. $129
2018-02-06 Single Family Victorian 9655 Rockport Hills Drive Cypress, TX 77433 $479,790 2,865 sq. ft. 3,485 sq. ft. $167
2018-02-06 Single Family Traditional 22118 Silver Blueberry Trail Cypress, TX 77433 $349,000 3,376 sq. ft. 8,276 sq. ft. $103
2018-02-06 Single Family Traditional 15623 Windsor Bluff Drive Cypress, TX 77429 $286,000 2,713 sq. ft. 6,534 sq. ft. $105
2018-02-06 Single Family Traditional 9111 Amistad Lake Circle Cypress, TX 77433 $500,000 4,332 sq. ft. 10,454 sq. ft. $115
2018-02-06 Single Family Traditional 14030 White Oak Gardens Drive Cypress, TX 77429 $217,000 2,425 sq. ft. 6,534 sq. ft. $89
2018-02-06 Single Family Traditional 13506 Sandford Meadow Lane Cypress, TX 77429 $359,995 2,931 sq. ft. $123
2018-02-06 Single Family Traditional 10327 Mossy Brook Lane Cypress, TX 77433 $195,000 2,079 sq. ft. 6,970 sq. ft. $94
2018-02-06 Single Family Traditional 18110 Mallard Estates Court Cypress, TX 77429 $232,900 2,370 sq. ft. 8,712 sq. ft. $98
2018-02-05 Single Family Other Style 9402 Open Sands Court Cypress, TX 77433 $388,999 4,473 sq. ft. 6,970 sq. ft. $87
2018-02-05 Single Family Traditional 18814 Dove Creek Springs Trail Cypress, TX 77433 $500,000 4,297 sq. ft. 10,890 sq. ft. $116
2018-02-05 Single Family Other Style 20702 Blue Hyacinth Drive Cypress, TX 77433 $234,900 1,822 sq. ft. 5,663 sq. ft. $129
2018-02-05 Single Family Traditional 9123 Hollowcreek Point Lane Cypress, TX 77433 $349,500 3,047 sq. ft. $115
2018-02-05 Single Family Traditional 10402 Missy Ridge Lane Cypress, TX 77433 $424,331 3,321 sq. ft. 10,890 sq. ft. $128
2018-02-05 Single Family Traditional 19127 Watchful Willow Cypress, TX 77433 $406,500 3,043 sq. ft. $134
2018-02-05 Single Family Traditional 15322 Thompson Ridge Drive Cypress, TX 77429 $429,000 3,610 sq. ft. $119
2018-02-05 Single Family Traditional 15502 Thompson Ridge Drive Cypress, TX 77429 $469,000 4,200 sq. ft. $112
2018-02-05 Single Family Traditional 12326 Brook Cove Drive Cypress, TX 77433 $485,000 4,106 sq. ft. 10,019 sq. ft. $118
2018-02-05 Single Family Traditional 18127 Hillock Glen Lane Cypress, TX 77429 $172,000 1,444 sq. ft. 5,663 sq. ft. $119
2018-02-04 Single Family Traditional 15330 Hope Shadow Court Cypress, TX 77429 $191,999 1,825 sq. ft. 5,227 sq. ft. $105
2018-02-04 Single Family Traditional 13630 Cedar Point Drive Cypress, TX 77429 $210,000 2,332 sq. ft. 9,148 sq. ft. $90
2018-02-03 Single Family Traditional 19319 Cottonwood Green Lane Cypress, TX 77433 $269,000 1,967 sq. ft. 5,227 sq. ft. $137
2018-02-03 Single Family English 12007 Dogwood Lane Cypress, TX 77429 $280,000 2,407 sq. ft. 70,132 sq. ft. $116
2018-02-03 Single Family Ranch 17126 Running Cypress Drive Cypress, TX 77429 $325,000 1,683 sq. ft. 46,174 sq. ft. $193
2018-02-03 Single Family Ranch 14603 Rochelle Court Cypress, TX 77429 $195,000 1,759 sq. ft. 6,098 sq. ft. $111
2018-02-03 Single Family Traditional 18110 Cypress Mist Court Cypress, TX 77433 $279,500 3,580 sq. ft. 9,583 sq. ft. $78
2018-02-03 Single Family Traditional 14106 Micmac Court Cypress, TX 77429 $310,000 3,326 sq. ft. 8,712 sq. ft. $93
2018-02-03 Single Family Traditional 14211 Spindle Arbor Road Cypress, TX 77429 $414,000 3,602 sq. ft. 8,712 sq. ft. $115
2018-02-02 Single Family Traditional 14510 Cypress Leaf Drive Cypress, TX 77429 $169,900 2,140 sq. ft. 6,534 sq. ft. $79
2018-02-02 Single Family Ranch 12702 Pine Spring Lane Cypress, TX 77429 $120,000 2,711 sq. ft. 18,731 sq. ft. $44
2018-02-02 Single Family Traditional 19226 Yaupon Mist Drive Cypress, TX 77433 $185,000 2,054 sq. ft. 5,663 sq. ft. $90
2018-02-02 Single Family Traditional 8418 Cape Royal Drive Cypress, TX 77433 $340,000 3,500 sq. ft. 7,405 sq. ft. $97
2018-02-02 Single Family Traditional 7942 Sagemark Ridge Drive Cypress, TX 77433 $179,000 2,168 sq. ft. 4,792 sq. ft. $83
2018-02-02 Single Family Traditional 16806 Gypsy Red Drive Cypress, TX 77433 $435,000 4,100 sq. ft. 9,583 sq. ft. $106
2018-02-02 Single Family Traditional 7326 Legacy Pines Drive Cypress, TX 77433 $180,000 1,650 sq. ft. 4,356 sq. ft. $109
2018-02-02 Single Family Traditional 10618 Cortland Ridge Lane Cypress, TX 77433 $320,000 3,045 sq. ft. 7,405 sq. ft. $105
2018-02-02 Single Family Traditional 18218 Cobblestone Drive Cypress, TX 77429 $177,000 1,643 sq. ft. 6,534 sq. ft. $108
2018-02-02 Single Family Traditional 13519 Sanford Meadow Ln Cypress, TX 77429 $455,739 4,083 sq. ft. 8,712 sq. ft. $112
2018-02-02 Single Family Ranch 14410 Light Falls Court Cypress, TX 77429 $265,000 2,423 sq. ft. 8,276 sq. ft. $109
2018-02-02 Single Family Contemporary/Modern 18214 Canary Bluff Lane Cypress, TX 77433 $246,000 2,729 sq. ft. 4,792 sq. ft. $90
2018-02-02 Single Family Traditional 14123 Sunrise Arbor Ln Cypress, TX 77429 $307,296 2,473 sq. ft. 6,970 sq. ft. $124
2018-02-02 Single Family Colonial 19334 Golden Cactus Lane Cypress, TX 77433 $194,000 2,009 sq. ft. 6,098 sq. ft. $97
2018-02-02 Single Family Traditional 12907 Lake Forest Drive Cypress, TX 77429 $429,000 2,742 sq. ft. 42,689 sq. ft. $156
2018-02-02 Single Family Traditional 16011 Mill Canyon Court Cypress, TX 77429 $249,999 2,502 sq. ft. 8,712 sq. ft. $100
2018-02-02 Single Family Traditional 13415 Missarah Lane Cypress, TX 77429 $395,000 3,417 sq. ft. 10,019 sq. ft. $116
2018-02-02 Single Family Traditional 14035 Windover Park Ln Cypress, TX 77429 $340,926 2,674 sq. ft. 7,841 sq. ft. $128
2018-02-02 Single Family Traditional 18310 Elizabeth Shore Loop Cypress, TX 77433 $274,996 2,454 sq. ft. 6,098 sq. ft. $112
2018-02-02 Single Family Traditional 19918 Weston Oaks Drive Cypress, TX 77429 $242,999 2,035 sq. ft. 6,970 sq. ft. $119
2018-02-02 Single Family Traditional 15415 Coral Leaf Trail Cypress, TX 77433 $264,900 2,966 sq. ft. 7,841 sq. ft. $89
2018-02-02 Single Family Traditional 20735 Cypress Echo Drive Cypress, TX 77433 $165,000 1,733 sq. ft. 7,405 sq. ft. $95
2018-02-02 Single Family Traditional 18803 Cove Pointe Drive Cypress, TX 77433 $264,900 1,838 sq. ft. 7,405 sq. ft. $144
2018-02-01 Single Family Traditional 22035 Summer Shower Court Cypress, TX 77433 $420,000 3,186 sq. ft. 14,375 sq. ft. $132
2018-02-01 Single Family Traditional 17302 Queenslake Drive Cypress, TX 77429 $236,990 2,830 sq. ft. 21,780 sq. ft. $84
2018-02-01 Single Family Traditional 18527 Costa Brava Drive Cypress, TX 77433 $239,000 3,015 sq. ft. 4,792 sq. ft. $79
2018-02-01 Single Family Traditional 14607 Claycroft Court Cypress, TX 77429 $395,000 3,046 sq. ft. 10,890 sq. ft. $130
2018-02-01 Single Family Other Style 20335 Aspen Manor Lane Cypress, TX 77433 $350,000 3,680 sq. ft. 9,148 sq. ft. $95
2018-02-01 Single Family Traditional 11806 Trinity Bluff Lane Cypress, TX 77433 $475,000 3,859 sq. ft. 8,276 sq. ft. $123
2018-02-01 Single Family Traditional 16326 Kendons Way Lane Cypress, TX 77429 $145,000 1,357 sq. ft. 4,792 sq. ft. $107
2018-02-01 Single Family Traditional 15610 Garden Bend Circle Cypress, TX 77433 $232,900 2,249 sq. ft. 5,663 sq. ft. $104
2018-02-01 Single Family Traditional 19907 Caraway Ridge Cypress, TX 77433 $235,000 2,781 sq. ft. 6,534 sq. ft. $84
2018-02-01 Single Family Traditional 18614 Bridoon Drive Cypress, TX 77433 $137,000 1,316 sq. ft. 5,663 sq. ft. $104
2018-02-01 Single Family Traditional 19710 Atherton Bend Lane Cypress, TX 77429 $217,990 2,098 sq. ft. 4,792 sq. ft. $104
2018-02-01 Single Family Traditional 9917 Easton Sky Lane Cypress, TX 77433 $489,900 4,305 sq. ft. 9,148 sq. ft. $114
2018-02-01 Single Family Traditional 14518 Palos Park Drive Cypress, TX 77429 $205,000 1,994 sq. ft. 7,405 sq. ft. $103
2018-02-01 Single Family Traditional 7811 Pasture Spring Lane Cypress, TX 77433 $200,000 2,100 sq. ft. 4,356 sq. ft. $95
2018-02-01 Single Family Traditional 18407 Water Mill Drive Cypress, TX 77429 $212,000 2,244 sq. ft. 6,098 sq. ft. $94
2018-02-01 Single Family Traditional 19414 Timpson Reservoir Drive Cypress, TX 77433 $469,900 4,159 sq. ft. 8,712 sq. ft. $113
2018-01-31 Single Family Traditional 18314 Hollow Branch Court Cypress, TX 77429 $210,000 1,833 sq. ft. 7,841 sq. ft. $115
2018-01-31 Single Family Traditional 26814 Pepper Creek Lane Cypress, TX 77433 $450,000 4,626 sq. ft. 12,197 sq. ft. $97
2018-01-31 Single Family Traditional 15222 Calandra Lark Lane Cypress, TX 77429 $328,900 2,512 sq. ft. 7,405 sq. ft. $131
2018-01-31 Single Family Traditional 19714 Benbrook Manor Lane Cypress, TX 77433 $295,000 3,051 sq. ft. 7,841 sq. ft. $97
2018-01-31 Single Family Traditional 15506 Stable Park Drive Cypress, TX 77429 $405,000 4,021 sq. ft. 11,326 sq. ft. $101
2018-01-31 Single Family Traditional 15415 Harris Canyon Lane Cypress, TX 77429 $190,000 1,849 sq. ft. 5,227 sq. ft. $103
2018-01-31 Single Family Traditional 13510 Holly Lane Cypress, TX 77429 $215,000 2,855 sq. ft. 30,056 sq. ft. $75
2018-01-31 Single Family Traditional 26811 Riverbend Point Lane Cypress, TX 77433 $310,000 3,076 sq. ft. 8,712 sq. ft. $101
2018-01-31 Single Family English; Traditional 12155 Lismore Lake Drive Cypress, TX 77429 $337,000 2,974 sq. ft. 5,663 sq. ft. $113
2018-01-31 Single Family Traditional 15414 Elm Square Street Cypress, TX 77429 $255,000 2,875 sq. ft. 6,534 sq. ft. $89
2018-01-31 Single Family Traditional 19827 Molly Winters Lane Cypress, TX 77433 $279,900 2,225 sq. ft. 6,098 sq. ft. $126
2018-01-30 Single Family Ranch 16402 Cypress Bend Drive Cypress, TX 77429 $120,000 1,924 sq. ft. 19,602 sq. ft. $62
2018-01-30 Single Family Ranch 16406 Cypress Bend Drive Cypress, TX 77429 $170,000 1,280 sq. ft. 49,223 sq. ft. $133
2018-01-30 Single Family Traditional 16151 Lower Pecos Street Cypress, TX 77433 $310,900 2,351 sq. ft. 5,663 sq. ft. $132
2018-01-30 Single Family Traditional 14406 Saint Pierre Lane Cypress, TX 77429 $310,000 2,953 sq. ft. 9,148 sq. ft. $105
2018-01-30 Single Family Traditional 7818 Pasture Spring Lane Cypress, TX 77433 $185,000 1,773 sq. ft. 4,400 sq. ft. $104
2018-01-30 Single Family Traditional 20015 Silver Mesia Circle Cypress, TX 77433 $357,900 2,714 sq. ft. 8,276 sq. ft. $132
2018-01-30 Single Family Traditional 19944 Great Elms Drive Cypress, TX 77433 $250,000 3,074 sq. ft. 5,663 sq. ft. $81
2018-01-30 Single Family Traditional 10922 Crossview Lake Cypress, TX 77433 $699,500 3,421 sq. ft. 17,860 sq. ft. $204
2018-01-30 Single Family Traditional 9219 Elrington Wood Place Cypress, TX 77433 $299,900 2,267 sq. ft. 6,970 sq. ft. $132
2018-01-30 Single Family Traditional 16607 Mystic Timber Lane Cypress, TX 77433 $444,205 3,180 sq. ft. $140
2018-01-30 Single Family Traditional 20006 Silver Mesia Circle Cypress, TX 77433 $319,900 2,251 sq. ft. 7,405 sq. ft. $142
2018-01-30 Single Family Traditional 16407 Mount Hope Drive Cypress, TX 77433 $438,900 3,395 sq. ft. 7,841 sq. ft. $129
2018-01-30 Single Family Traditional 18911 Bee Cave Springs Circle Cypress, TX 77433 $459,000 4,081 sq. ft. 7,405 sq. ft. $112
2018-01-29 Single Family Traditional 14630 Pebble Meadow Court Cypress, TX 77429 $188,000 1,663 sq. ft. 5,663 sq. ft. $113
2018-01-29 Single Family Traditional 7714 Prairie Fire Lane Cypress, TX 77433 $155,000 1,607 sq. ft. 6,970 sq. ft. $96
2018-01-29 Single Family Traditional 13310 Ravensway Drive Cypress, TX 77429 $159,000 1,420 sq. ft. 4,792 sq. ft. $112
2018-01-29 Single Family Mediterranean 19122 Greenview Glen Drive Cypress, TX 77433 $399,990 3,129 sq. ft. 7,405 sq. ft. $128
2018-01-29 Single Family Traditional 17835 Olde Oaks Estate Cypress, TX 77433 $365,000 3,050 sq. ft. 5,663 sq. ft. $120
2018-01-29 Single Family Split Level 18206 Tuscana Shores Drive Cypress, TX 77433 $230,000 2,186 sq. ft. 4,792 sq. ft. $105
2018-01-29 Single Family Traditional 17122 Williams Oak Drive Cypress, TX 77433 $329,900 3,252 sq. ft. 7,841 sq. ft. $101
2018-01-29 Single Family Traditional 20110 Redondo Valley Drive Cypress, TX 77433 $347,900 2,749 sq. ft. 10,019 sq. ft. $127
2018-01-29 Single Family Traditional 17339 Morgans Lake Drive Cypress, TX 77433 $449,900 3,998 sq. ft. 8,712 sq. ft. $113
2018-01-29 Single Family Traditional 11407 Blackstream Court Cypress, TX 77433 $240,000 2,557 sq. ft. 6,534 sq. ft. $94
2018-01-29 Single Family Traditional 20614 Tulip Blossom Court Cypress, TX 77433 $200,000 1,866 sq. ft. 6,534 sq. ft. $107
2018-01-29 Single Family Traditional 14407 Sunbluff Court Cypress, TX 77429 $350,000 3,253 sq. ft. 14,810 sq. ft. $108
2018-01-28 Single Family Traditional 16202 Kelley Green Court Cypress, TX 77429 $169,900 1,540 sq. ft. 7,405 sq. ft. $110
2018-01-27 Single Family Traditional 13615 Northpointe Ridge Lane Cypress, TX 77429 $234,900 2,446 sq. ft. 6,534 sq. ft. $96
2018-01-27 Single Family Traditional 18523 Haughland Drive Cypress, TX 77433 $109,000 1,222 sq. ft. 6,098 sq. ft. $89
2018-01-27 Single Family Traditional 19914 Caitlyn Blossom Lane Cypress, TX 77433 $334,900 2,734 sq. ft. 6,098 sq. ft. $122
2018-01-27 Single Family Traditional 16007 Peach Bluff Lane Cypress, TX 77429 $295,000 3,508 sq. ft. 6,534 sq. ft. $84
2018-01-27 Single Family Traditional 17902 Plum Green Court Cypress, TX 77429 $194,900 1,535 sq. ft. 7,841 sq. ft. $127
2018-01-27 Single Family Traditional 15511 Royal Trace Cypress, TX 77429 $418,452 3,565 sq. ft. 10,019 sq. ft. $117
2018-01-26 Single Family Traditional 18103 Double Bay Road Cypress, TX 77429 $263,500 2,192 sq. ft. 6,970 sq. ft. $120
2018-01-26 Single Family Traditional 19214 Highlands Bayou Drive Cypress, TX 77433 $339,900 2,280 sq. ft. 7,841 sq. ft. $149
2018-01-26 Single Family Traditional 7242 River Pines Drive Cypress, TX 77433 $164,500 1,720 sq. ft. 3,920 sq. ft. $96
2018-01-26 Single Family Traditional 10914 Twilight Creek Lane Cypress, TX 77433 $309,000 2,755 sq. ft. 7,405 sq. ft. $112
2018-01-26 Single Family Traditional 8338 Durham Canyon Lane Cypress, TX 77433 $195,000 1,746 sq. ft. 5,227 sq. ft. $112
2018-01-26 Single Family Traditional 12915 Mustang River Drive Cypress, TX 77429 $749,900 4,759 sq. ft. 13,068 sq. ft. $158
2018-01-26 Single Family Traditional 13022 Mustang River Drive Cypress, TX 77429 $1,100,000 5,575 sq. ft. 14,810 sq. ft. $197
2018-01-26 Single Family Traditional 22107 Field Green Drive Cypress, TX 77433 $210,000 1,912 sq. ft. 6,534 sq. ft. $110
2018-01-26 Single Family Traditional 11314 Rocky Mill Drive Cypress, TX 77429 $180,000 2,073 sq. ft. 7,841 sq. ft. $87
2018-01-26 Single Family Traditional 13015 Mustang River Drive Cypress, TX 77429 $594,990 3,903 sq. ft. 15,682 sq. ft. $152
2018-01-26 Single Family Traditional 12910 Stallion Creek Court Cypress, TX 77429 $624,990 3,781 sq. ft. 20,038 sq. ft. $165
2018-01-26 Single Family Traditional 16215 Bontura Cypress, TX 77429 $365,000 3,251 sq. ft. 11,761 sq. ft. $112
2018-01-26 Single Family Traditional 17127 Cypress Knee Drive Cypress, TX 77429 $390,000 2,262 sq. ft. 47,916 sq. ft. $172
2018-01-26 Single Family Traditional 15303 Highland Elm Street Cypress, TX 77433 $260,000 2,437 sq. ft. 12,197 sq. ft. $107
2018-01-25 Single Family Other Style Vacant Lot 10 Queenslake Drive Cypress, TX 77429 $559,000 7,000 sq. ft. 174,240 sq. ft. $80
2018-01-25 Single Family Traditional 14607 Ginger Pear Court Cypress, TX 77433 $275,000 2,476 sq. ft. 6,534 sq. ft. $111
2018-01-25 Single Family Traditional 20107 Shiloh Springs Drive Cypress, TX 77433 $269,500 2,721 sq. ft. 7,841 sq. ft. $99
2018-01-25 Single Family Contemporary/Modern; Mediterranean 10635 Heather Berry Cypress, TX 77433 $447,070 2,938 sq. ft. 7,841 sq. ft. $152
2018-01-25 Single Family Traditional 19910 Weston Oaks Drive Cypress, TX 77429 $219,900 1,968 sq. ft. 5,663 sq. ft. $112
2018-01-25 Single Family Traditional 8522 Durango Valley Lane Cypress, TX 77433 $235,000 2,641 sq. ft. 6,970 sq. ft. $89
2018-01-25 Single Family Mediterranean 17810 Honey Daisy Court Cypress, TX 77433 $654,900 4,326 sq. ft. 8,276 sq. ft. $151
2018-01-25 Single Family Traditional 15642 Kensington Bluff Drive Cypress, TX 77429 $255,000 2,127 sq. ft. 11,326 sq. ft. $120
2018-01-24 Single Family Traditional 16403 Burham Park Drive Cypress, TX 77429 $349,999 3,226 sq. ft. 8,712 sq. ft. $108
2018-01-24 Single Family Traditional 13606 Leon Springs Lane Cypress, TX 77429 $667,000 4,833 sq. ft. 16,117 sq. ft. $138
2018-01-24 Single Family Traditional 19006 Kimber Creek Lane Cypress, TX 77429 $529,000 4,199 sq. ft. $126
2018-01-24 Single Family Traditional 15414 Thompson Ridge Drive Cypress, TX 77429 $485,000 4,087 sq. ft. $119
2018-01-24 Single Family Traditional 16618 Wolf Pass Drive Cypress, TX 77433 $449,000 3,348 sq. ft. 10,890 sq. ft. $134
2018-01-24 Single Family Traditional 11630 Mueller Cemetary Road Cypress, TX 77429 $420,000 1,655 sq. ft. 80,586 sq. ft. $254
2018-01-24 Single Family Traditional 14706 Red Bayberry Court Cypress, TX 77433 $325,000 3,040 sq. ft. 6,534 sq. ft. $107
2018-01-24 Single Family Mediterranean 18826 East Josey Overlook Drive Cypress, TX 77433 $749,900 4,297 sq. ft. 16,553 sq. ft. $175
2018-01-24 Single Family Traditional 10706 Dawn River Court Cypress, TX 77433 $470,472 3,073 sq. ft. $153
2018-01-24 Single Family Traditional 10711 Dawn River Court Cypress, TX 77433 $492,004 3,536 sq. ft. $139
2018-01-24 Single Family Contemporary/Modern 20514 Duncan Run Ln Cypress, TX 77433 $315,990 2,182 sq. ft. 7,405 sq. ft. $145
2018-01-24 Single Family Traditional 8803 Chapada Highlands Drive Cypress, TX 77433 $283,995 2,708 sq. ft. 0 sq. ft. $105
2018-01-24 Single Family Ranch; Traditional 8806 Chapada Highlands Drive Cypress, TX 77433 $243,994 1,722 sq. ft. $142
2018-01-24 Single Family Traditional 16406 Mount Hope Drive Cypress, TX 77433 $428,900 3,386 sq. ft. 7,405 sq. ft. $127
2018-01-24 Single Family Traditional 18715 Fairmont Springs Cypress, TX 77429 $319,105 2,279 sq. ft. $140
2018-01-24 Single Family Traditional 18803 Trinity Star Drive Cypress, TX 77433 $515,000 4,200 sq. ft. 15,246 sq. ft. $123
2018-01-23 Single Family Ranch 14234 Englewood Park Lane Cypress, TX 77429 $224,900 2,331 sq. ft. 6,098 sq. ft. $96
2018-01-23 Single Family Traditional 8815 Chapada Highlands Drive Cypress, TX 77433 $263,995 2,173 sq. ft. 0 sq. ft. $121
2018-01-23 Single Family Traditional 8722 Chapada Highlands Drive Cypress, TX 77433 $265,995 2,173 sq. ft. 0 sq. ft. $122
2018-01-23 Single Family Traditional 8718 Chapada Highlands Drive Cypress, TX 77433 $286,995 2,596 sq. ft. 0 sq. ft. $111
2018-01-23 Single Family Traditional 8819 Chapada Highlands Drive Cypress, TX 77433 $295,995 2,596 sq. ft. 0 sq. ft. $114
2018-01-23 Single Family Traditional 13311 Hunters View Lane Cypress, TX 77429 $365,000 3,609 sq. ft. 8,712 sq. ft. $101
2018-01-23 Single Family Ranch; Traditional 8714 Chapada Highlands Drive Cypress, TX 77433 $237,995 1,722 sq. ft. $138
2018-01-23 Single Family Traditional 20503 Behrens Pass Lane Cypress, TX 77433 $465,900 3,322 sq. ft. 10,890 sq. ft. $140
2018-01-23 Single Family Traditional 10711 Randall Run Lane Cypress, TX 77433 $474,900 3,791 sq. ft. 9,583 sq. ft. $125
2018-01-23 Single Family Ranch; Traditional 18326 Cobblestone Drive Cypress, TX 77429 $195,000 2,010 sq. ft. 6,534 sq. ft. $97
2018-01-23 Single Family Traditional 20714 Behrens Pass Lane Cypress, TX 77433 $523,900 3,714 sq. ft. 10,454 sq. ft. $141
2018-01-23 Single Family Traditional 10531 Randall Run Lane Cypress, TX 77433 $473,900 3,322 sq. ft. 12,197 sq. ft. $143
2018-01-23 Single Family Traditional 11435 Columbia Pines Lane Cypress, TX 77433 $305,000 2,288 sq. ft. 6,970 sq. ft. $133
2018-01-23 Single Family Contemporary/Modern 18815 Primrose Edge Court Cypress, TX 77429 $414,900 4,065 sq. ft. 6,970 sq. ft. $102
2018-01-23 Single Family Traditional 16527 Mystic Timber Lane Cypress, TX 77433 $464,257 3,533 sq. ft. $131
2018-01-23 Single Family Traditional 19331 Cottonwood Green Lane Cypress, TX 77433 $280,000 2,397 sq. ft. 6,098 sq. ft. $117
2018-01-23 Single Family Traditional 12935 Tall Spruce Drive Cypress, TX 77429 $229,900 1,913 sq. ft. 6,098 sq. ft. $120
2018-01-23 Single Family Traditional 15813 Drifting Rose Drive Cypress, TX 77429 $410,000 2,703 sq. ft. 34,848 sq. ft. $152
2018-01-22 Single Family Traditional 20707 Cypress Green Lane Cypress, TX 77433 $228,800 2,860 sq. ft. 6,098 sq. ft. $80
2018-01-22 Single Family Traditional 10802 Lake Raven Court Cypress, TX 77433 $379,990 4,021 sq. ft. 13,068 sq. ft. $94
2018-01-22 Single Family Traditional 7602 Crestbrook Manor Lane Cypress, TX 77433 $204,900 2,303 sq. ft. 10,454 sq. ft. $89
2018-01-22 Single Family Traditional 15706 Forest Creek Farms Drive Cypress, TX 77429 $185,000 2,250 sq. ft. 5,227 sq. ft. $82
2018-01-22 Single Family Traditional 16814 Chaco Canyon Court Cypress, TX 77429 $195,000 1,916 sq. ft. 6,534 sq. ft. $102
2018-01-22 Single Family Traditional 17614 Wind Mist Lane Cypress, TX 77433 $225,000 2,884 sq. ft. 6,970 sq. ft. $78
2018-01-22 Single Family Traditional 17010 Bobcat Trl Cypress, TX 77429 $585,999 2,712 sq. ft. $216
2018-01-22 Single Family Traditional 20426 Willow Trace Drive Cypress, TX 77433 $249,900 2,526 sq. ft. 6,970 sq. ft. $99
2018-01-22 Single Family Traditional 7326 Legacy Pines Cypress, TX 77433 $180,000 1,650 sq. ft. $109
2018-01-21 Single Family Traditional 26814 Canton Pass Lane Cypress, TX 77433 $460,000 4,476 sq. ft. 13,504 sq. ft. $103
2018-01-21 Single Family Traditional 20906 Refuge Creek Drive Cypress, TX 77433 $580,000 4,063 sq. ft. 21,780 sq. ft. $143
2018-01-21 Single Family Traditional 20550 Double Meadows Dr Cypress, TX 77433 $169,000 1,610 sq. ft. 6,534 sq. ft. $105
2018-01-20 Single Family Contemporary/Modern 8135 Heartbrook Field Lane Cypress, TX 77433 $224,900 2,300 sq. ft. 5,663 sq. ft. $98
2018-01-20 Single Family Other Style 16810 Echo Heights Cypress, TX 77433 $362,047 3,091 sq. ft. 7,405 sq. ft. $117
2018-01-20 Single Family Traditional 18138 Calcaterra Court Cypress, TX 77429 $170,000 1,420 sq. ft. 5,663 sq. ft. $120
2018-01-19 Single Family Traditional 8706 Austin Thomas Drive Cypress, TX 77433 $205,000 1,599 sq. ft. 6,098 sq. ft. $128
2018-01-19 Single Family Traditional 14326 Rosehill Estates Lane Cypress, TX 77429 $245,000 2,474 sq. ft. 8,276 sq. ft. $99
2018-01-19 Single Family Traditional 15515 Kellan Court Cypress, TX 77429 $389,900 3,609 sq. ft. 10,454 sq. ft. $108
2018-01-19 Single Family Traditional 13606 Delacey Lane Cypress, TX 77429 $311,200 2,789 sq. ft. 7,841 sq. ft. $112
2018-01-19 Single Family Traditional 15326 Redbud Leaf Lane Cypress, TX 77433 $279,900 2,884 sq. ft. 10,019 sq. ft. $97
2018-01-19 Single Family Traditional 19123 Watchful Willow Cypress, TX 77433 $411,849 2,804 sq. ft. $147
2018-01-19 Single Family Traditional 19602 Providence Shore Way Cypress, TX 77433 $185,000 2,675 sq. ft. 4,792 sq. ft. $69
2018-01-19 Single Family Traditional 20303 Timberline Trl Cypress, TX 77433 $359,000 4,116 sq. ft. 11,326 sq. ft. $87
2018-01-19 Single Family Traditional 18943 Trinity Star Drive Cypress, TX 77433 $585,000 4,094 sq. ft. 8,712 sq. ft. $143
2018-01-19 Single Family Traditional 16159 Lower Pecos Street Cypress, TX 77433 $289,900 1,950 sq. ft. 6,970 sq. ft. $149
2018-01-19 Single Family Traditional 19903 Songlark Circle Cypress, TX 77433 $386,900 3,068 sq. ft. 16,988 sq. ft. $126
2018-01-19 Single Family Traditional 20406 Dylan Landing Circle Lane Cypress, TX 77433 $489,900 3,640 sq. ft. 13,939 sq. ft. $135
2018-01-19 Single Family Traditional 16506 Mount Hope Drive Cypress, TX 77433 $389,900 3,257 sq. ft. 7,405 sq. ft. $120
2018-01-19 Single Family Traditional 8107 Toprock Lane Cypress, TX 77433 $240,000 2,510 sq. ft. 8,712 sq. ft. $96
2018-01-19 Single Family Ranch; Traditional 1 Live Oak Trail Cypress, TX 77429 $297,000 2,373 sq. ft. 47,916 sq. ft. $125
2018-01-19 Single Family Traditional 18114 Hammondsport Lane Cypress, TX 77429 $174,900 1,825 sq. ft. 5,663 sq. ft. $96
2018-01-19 Single Family Traditional 16415 Mount Hope Drive Cypress, TX 77433 $424,900 3,392 sq. ft. 7,841 sq. ft. $125
2018-01-19 Single Family Traditional 18922 Lookout Ridge Drive Cypress, TX 77433 $369,900 2,738 sq. ft. 6,970 sq. ft. $135
2018-01-19 Single Family Traditional 14730 Lark Sky Cypress, TX 77429 $257,070 2,786 sq. ft. $92
2018-01-19 Single Family Traditional 20210 Stone Falls Court Cypress, TX 77433 $225,000 2,166 sq. ft. 6,098 sq. ft. $104
2018-01-19 Single Family Traditional 18427 Cypress Meade Lane Cypress, TX 77429 $219,500 2,523 sq. ft. 8,276 sq. ft. $87
2018-01-18 Single Family Traditional 15610 Chestnut Branch Cypress, TX 77429 $259,615 3,115 sq. ft. $83
2018-01-18 Single Family Traditional 11407 Sky Way Street Cypress, TX 77429 $184,900 2,042 sq. ft. 7,405 sq. ft. $91
2018-01-18 Single Family Traditional 20418 Regal Shadow Lane Cypress, TX 77433 $456,797 3,636 sq. ft. 8,712 sq. ft. $126
2018-01-18 Single Family Traditional 20615 Fawn Hill Lane Cypress, TX 77433 $446,783 4,048 sq. ft. 10,019 sq. ft. $110
2018-01-18 Single Family Traditional 8315 Cape Royal Drive Cypress, TX 77433 $344,900 4,080 sq. ft. 7,405 sq. ft. $85
2018-01-18 Single Family Ranch; Traditional 12802 Earlywood Lane Cypress, TX 77429 $250,000 2,526 sq. ft. 10,890 sq. ft. $99
2018-01-18 Single Family Traditional 18939 New Birmingham Drive Cypress, TX 77433 $405,900 3,299 sq. ft. 7,405 sq. ft. $123
2018-01-18 Single Family Traditional 11106 Bluewater Lagoon Circle Cypress, TX 77433 $391,450 3,121 sq. ft. $125
2018-01-18 Single Family Traditional 18411 Ariat Cypress, TX 77429 $293,199 2,377 sq. ft. $123
2018-01-18 Single Family Traditional 9506 Flora Rock Lane Cypress, TX 77433 $424,046 3,636 sq. ft. 7,841 sq. ft. $117
2018-01-18 Single Family Traditional 19226 Bullard Creek Drive Cypress, TX 77433 $434,906 3,190 sq. ft. 8,276 sq. ft. $136
2018-01-18 Single Family Traditional 18015 Rexine Lane Cypress, TX 77433 $195,995 2,140 sq. ft. 4,356 sq. ft. $92
2018-01-18 Single Family Traditional 26419 Ridgefield Park Lane Cypress, TX 77433 $515,000 4,656 sq. ft. 13,068 sq. ft. $111
2018-01-18 Single Family Traditional 19222 Bullard Creek Drive Cypress, TX 77433 $419,964 2,936 sq. ft. 9,583 sq. ft. $143
2018-01-18 Single Family Traditional 14511 Middle Bluff Trl Cypress, TX 77429 $279,900 3,585 sq. ft. 8,712 sq. ft. $78
2018-01-18 Single Family Traditional 16223 Folk Festival Place Cypress, TX 77433 $483,673 3,525 sq. ft. $137
2018-01-18 Single Family Traditional 14007 Wild Dove Court Cypress, TX 77429 $260,000 3,173 sq. ft. 6,098 sq. ft. $82
2018-01-18 Single Family Traditional 13507 Shurlin Place Cypress, TX 77429 $409,000 3,014 sq. ft. 9,148 sq. ft. $136
2018-01-18 Single Family Traditional 10422 Hartfield Bluff Lane Cypress, TX 77433 $279,900 2,256 sq. ft. 6,098 sq. ft. $124
2018-01-17 Single Family Spanish; Traditional 12931 Chavile Cypress, TX 77429 $226,900 2,157 sq. ft. 30,928 sq. ft. $105
2018-01-17 Single Family Traditional 18015 June Oak Street Cypress, TX 77429 $221,900 2,375 sq. ft. 5,227 sq. ft. $93
2018-01-17 Single Family Traditional 15630 Windsor Bluff Drive Cypress, TX 77429 $257,350 2,673 sq. ft. 6,098 sq. ft. $96
2018-01-17 Single Family Traditional 14422 Idylwild Wood Way Cypress, TX 77429 $225,000 2,464 sq. ft. 4,792 sq. ft. $91
2018-01-17 Single Family French; Traditional 16711 Glenwood Drive Cypress, TX 77433 $419,900 4,260 sq. ft. 10,019 sq. ft. $99
2018-01-17 Single Family Traditional 12610 Pine Bough Lane Cypress, TX 77429 $135,000 2,239 sq. ft. 9,583 sq. ft. $60
2018-01-17 Single Family Traditional 14246 Cornelia Drive Cypress, TX 77429 $164,500 1,757 sq. ft. 8,276 sq. ft. $94
2018-01-17 Single Family Traditional 14235 Cypress Ridge Drive Cypress, TX 77429 $184,000 2,065 sq. ft. 7,405 sq. ft. $89
2018-01-17 Single Family Contemporary/Modern; Traditional 16514 Hearty Orange Drive Cypress, TX 77433 $329,000 3,030 sq. ft. 6,534 sq. ft. $109
2018-01-17 Single Family Traditional 7810 Maverick Trace Lane Cypress, TX 77433 $165,000 2,281 sq. ft. 4,792 sq. ft. $72
2018-01-16 Single Family Traditional 18210 Mueschke Road Cypress, TX 77433 $975,000 8,426 sq. ft. 243,936 sq. ft. $116
2018-01-16 Single Family Traditional 19819 Molly Winters Lane Cypress, TX 77433 $377,000 3,010 sq. ft. $125
2018-01-16 Single Family Traditional 16135 Cypress Trace Drive Cypress, TX 77429 $119,900 2,702 sq. ft. 9,148 sq. ft. $44
2018-01-16 Single Family Traditional 15315 Cabot Ridge Lane Cypress, TX 77429 $195,000 1,876 sq. ft. 5,227 sq. ft. $104
2018-01-16 Single Family Traditional 14710 Daubern Court Cypress, TX 77429 $371,000 3,622 sq. ft. 11,761 sq. ft. $102
2018-01-16 Single Family Traditional 8130 Menorca Cove Drive Cypress, TX 77433 $174,900 1,654 sq. ft. 5,663 sq. ft. $106
2018-01-16 Single Family Traditional 18638 Fairmont Springs Cypress, TX 77429 $339,525 2,815 sq. ft. $121
2018-01-15 Single Family Traditional 13507 Post Oak Glen Lane Cypress, TX 77429 $280,000 2,627 sq. ft. 9,148 sq. ft. $107
2018-01-15 Single Family Traditional 12926 Wincrest Court Cypress, TX 77429 $265,000 2,914 sq. ft. 8,276 sq. ft. $91
2018-01-15 Single Family Traditional 7926 Indian Desert Drive Cypress, TX 77433 $172,995 2,163 sq. ft. 5,227 sq. ft. $80
2018-01-15 Single Family Traditional 17631 Broad Bend Drive Cypress, TX 77433 $574,900 4,402 sq. ft. 11,326 sq. ft. $131
2018-01-15 Single Family Traditional 17506 Treecreeper Cypress, TX 77433 $249,900 1,945 sq. ft. 7,841 sq. ft. $128
2018-01-15 Single Family Traditional 18319 Water Mill Drive Cypress, TX 77429 $196,900 1,876 sq. ft. 5,663 sq. ft. $105
2018-01-15 Single Family Traditional 12319 Terrace Cove Lane Cypress, TX 77433 $308,500 2,315 sq. ft. 7,405 sq. ft. $133
2018-01-15 Single Family Traditional 19806 Molly Winters Lane Cypress, TX 77433 $265,000 2,213 sq. ft. 6,098 sq. ft. $120
2018-01-15 Single Family Traditional 17719 Broken Pass Cypress, TX 77433 $406,900 3,781 sq. ft. $108
2018-01-15 Single Family Ranch 19203 Primrose Prairie Court Cypress, TX 77433 $359,900 2,626 sq. ft. 6,970 sq. ft. $137
2018-01-14 Single Family Traditional 8227 Gran Villa Drive Cypress, TX 77433 $220,000 2,443 sq. ft. 5,227 sq. ft. $90
2018-01-14 Single Family Mediterranean; Traditional 11815 Lilac Valley Cypress, TX 77433 $428,900 3,809 sq. ft. 8,276 sq. ft. $113
2018-01-14 Single Family Traditional 7406 Oakwood Canyon Drive Cypress, TX 77433 $176,000 1,653 sq. ft. 6,098 sq. ft. $106
2018-01-14 Single Family Traditional 18522 Lodgepole Pine Street Cypress, TX 77429 $249,998 3,390 sq. ft. 5,663 sq. ft. $74
2018-01-13 Single Family Traditional 19131 Larkspur Hills Drive Cypress, TX 77433 $160,000 1,740 sq. ft. 6,970 sq. ft. $92
2018-01-13 Single Family Traditional 19130 Larkspur Hills Drive Cypress, TX 77433 $149,900 1,603 sq. ft. 5,227 sq. ft. $94
2018-01-13 Single Family Traditional 20107 Stanton Lake Drive Cypress, TX 77433 $328,000 3,083 sq. ft. 10,890 sq. ft. $106
2018-01-13 Single Family Traditional 13918 Copper Pine Drive Cypress, TX 77429 $395,210 2,439 sq. ft. $162
2018-01-12 Single Family Traditional 15434 Day Trip Trail Cypress, TX 77429 $219,730 2,435 sq. ft. 9,148 sq. ft. $90
2018-01-12 Single Family Traditional 20538 Double Meadows Drive Cypress, TX 77433 $145,000 1,375 sq. ft. 6,098 sq. ft. $105
2018-01-12 Single Family Colonial 12502 Campsite Trail Cypress, TX 77429 $270,000 2,441 sq. ft. 10,019 sq. ft. $111
2018-01-12 Single Family Traditional 17923 Folly Point Drive Cypress, TX 77429 $399,900 3,320 sq. ft. 9,583 sq. ft. $120
2018-01-12 Single Family Ranch; Traditional 12007 Willow Lane Cypress, TX 77429 $130,000 1,867 sq. ft. 14,810 sq. ft. $70
2018-01-12 Single Family Other Style 16215 Golden Sage Lane Cypress, TX 77429 $148,000 1,807 sq. ft. 7,405 sq. ft. $82
2018-01-12 Single Family Traditional 12510 Ravens Chase Lane Cypress, TX 77429 $199,900 2,478 sq. ft. 8,712 sq. ft. $81
2018-01-12 Single Family Traditional 20010 Sunshine Ridge Lane Cypress, TX 77429 $190,000 1,759 sq. ft. 5,663 sq. ft. $108
2018-01-12 Single Family Traditional 15535 Echo Stable Lane Cypress, TX 77429 $199,900 2,248 sq. ft. 5,227 sq. ft. $89
2018-01-12 Single Family Traditional 18122 Jills Way Lane Cypress, TX 77429 $159,000 1,810 sq. ft. 6,098 sq. ft. $88
2018-01-12 Single Family Traditional 18022 Timber Mist Court Cypress, TX 77433 $289,900 2,684 sq. ft. 8,712 sq. ft. $108
2018-01-12 Single Family Traditional 13914 Copper Pine Drive Cypress, TX 77429 $410,202 2,626 sq. ft. $156
2018-01-12 Single Family Traditional 15106 Redbud Leaf Lane Cypress, TX 77433 $299,900 3,284 sq. ft. 11,326 sq. ft. $91
2018-01-12 Single Family Traditional 15003 Trumpet Vine Lane Cypress, TX 77433 $215,000 2,428 sq. ft. 7,405 sq. ft. $89
2018-01-11 Single Family Traditional 13823 Nathan Ridge Lane Cypress, TX 77429 $525,000 4,427 sq. ft. 13,504 sq. ft. $119
2018-01-11 Single Family Traditional 15110 Greenhaven Lake Lane Cypress, TX 77429 $234,900 2,318 sq. ft. 8,276 sq. ft. $101
2018-01-11 Single Family Traditional 10807 Dawn River Court Cypress, TX 77433 $434,980 3,030 sq. ft. $144
2018-01-11 Single Family Traditional 18507 By The Lake Court Cypress, TX 77429 $269,000 3,233 sq. ft. 8,276 sq. ft. $83
2018-01-11 Single Family Mediterranean 10703 Mason Dale Cypress, TX 77433 $602,205 4,385 sq. ft. 15,682 sq. ft. $137
2018-01-11 Single Family Traditional 19510 W Stone Caldwell Drive Cypress, TX 77433 $635,828 4,458 sq. ft. 9,583 sq. ft. $143
2018-01-11 Single Family Contemporary/Modern 10407 S Sunrise Shores Cypress, TX 77433 $612,555 3,897 sq. ft. 12,632 sq. ft. $157
2018-01-11 Single Family Ranch; Traditional 16730 Bridle Oak Drive Cypress, TX 77433 $1,798,000 6,438 sq. ft. 442,570 sq. ft. $279
2018-01-11 Single Family Traditional 19826 Kelsey Gap Court Cypress, TX 77433 $330,000 2,762 sq. ft. 6,970 sq. ft. $119
2018-01-11 Single Family Traditional 18611 Troon Oak Street Cypress, TX 77429 $245,000 2,665 sq. ft. 5,663 sq. ft. $92
2018-01-11 Single Family Traditional 19411 Cottonwood Green Lane Cypress, TX 77433 $300,000 2,639 sq. ft. 9,148 sq. ft. $114
2018-01-11 Single Family Traditional 19859 Creston Cove Court Cypress, TX 77433 $170,000 2,199 sq. ft. 5,227 sq. ft. $77
2018-01-10 Single Family Traditional 15311 Sienna Peak Lane Cypress, TX 77429 $259,950 2,684 sq. ft. 4,792 sq. ft. $97
2018-01-10 Single Family Traditional 15314 Mustang Valley Circle Cypress, TX 77429 $399,990 3,480 sq. ft. 11,326 sq. ft. $115
2018-01-10 Single Family Traditional 10802 William Pass Lane Cypress, TX 77433 $589,378 4,590 sq. ft. 10,454 sq. ft. $128
2018-01-10 Single Family Traditional 19807 Tacoma Bluff Drive Cypress, TX 77433 $239,000 2,087 sq. ft. 6,970 sq. ft. $115
2018-01-10 Single Family Traditional 20431 Scenic Woods Drive Cypress, TX 77433 $249,900 2,617 sq. ft. 6,970 sq. ft. $95
2018-01-10 Single Family Other Style 18411 Blue Hollow Heights Cypress, TX 77433 $325,547 2,197 sq. ft. 5,227 sq. ft. $148
2018-01-10 Single Family Traditional 15715 Ponderosa Bend Cypress, TX 77429 $384,567 2,788 sq. ft. $138
2018-01-10 Single Family Traditional 11807 Lilac Valley Cypress, TX 77433 $422,900 3,593 sq. ft. 7,841 sq. ft. $118
2018-01-10 Single Family Traditional 14315 Floret Estates Court Cypress, TX 77429 $233,000 2,329 sq. ft. 9,148 sq. ft. $100
2018-01-10 Single Family Traditional 19111 Panther Cave Cypress, TX 77433 $299,990 2,397 sq. ft. 10,019 sq. ft. $125
2018-01-10 Single Family Traditional 16623 Madison Midway Drive Cypress, TX 77433 $497,900 3,532 sq. ft. $141
2018-01-10 Single Family Traditional 16514 Cancy Creek Court Cypress, TX 77433 $479,900 3,546 sq. ft. $135
2018-01-10 Single Family Traditional 14803 Yellow Begonia Drive Cypress, TX 77433 $240,000 2,163 sq. ft. 7,405 sq. ft. $111
2018-01-09 Single Family Contemporary/Modern 17706 Barker Grove Court Cypress, TX 77433 $265,000 2,879 sq. ft. 10,019 sq. ft. $92
2018-01-09 Single Family Traditional 9306 Granbury Court Cypress, TX 77433 $510,000 4,575 sq. ft. 13,939 sq. ft. $111
2018-01-09 Single Family Traditional 13410 Far Point Manor Court Cypress, TX 77429 $425,000 2,971 sq. ft. 10,019 sq. ft. $143
2018-01-09 Single Family Traditional 9523 Solano Point Lane Cypress, TX 77433 $499,995 4,032 sq. ft. 0 sq. ft. $124
2018-01-09 Single Family Traditional 18642 Fairmont Springs Cypress, TX 77429 $323,135 2,520 sq. ft. $128
2018-01-09 Single Family Traditional 26307 Opal Hollow Lane Cypress, TX 77433 $390,000 3,765 sq. ft. 13,939 sq. ft. $104
2018-01-09 Single Family Traditional 14811 Cypress Valley Drive Cypress, TX 77429 $159,990 2,163 sq. ft. 6,534 sq. ft. $74
2018-01-09 Single Family Traditional 19509 Comal River Drive Cypress, TX 77433 $535,000 4,126 sq. ft. 10,890 sq. ft. $130
2018-01-09 Single Family Traditional 15623 Windsor Bluff Cypress, TX 77429 $289,000 2,713 sq. ft. $107
2018-01-09 Single Family Traditional 15414 Wild Timber Trail Cypress, TX 77433 $299,900 3,201 sq. ft. 7,405 sq. ft. $94
2018-01-09 Single Family Traditional 15618 Chestnut Branch Cypress, TX 77429 $226,930 1,776 sq. ft. $128
2018-01-09 Single Family Traditional 14207 Grove Estates Lane Cypress, TX 77429 $290,000 2,576 sq. ft. 8,712 sq. ft. $113
2018-01-09 Single Family Traditional 15506 Forest Creek Farms Drive Cypress, TX 77429 $165,000 1,419 sq. ft. 5,227 sq. ft. $116
2018-01-09 Single Family Traditional 15706 Frio Springs Lane Cypress, TX 77429 $575,000 4,613 sq. ft. 13,504 sq. ft. $125
2018-01-09 Single Family Traditional 15735 Ponderosa Bend Cypress, TX 77429 $399,452 3,269 sq. ft. $122
2018-01-09 Single Family Traditional 17814 Shadow Cypress Court Cypress, TX 77433 $284,900 3,106 sq. ft. 10,019 sq. ft. $92
2018-01-09 Single Family Traditional 16126 Stone Stable Lane Cypress, TX 77429 $194,900 1,919 sq. ft. 6,534 sq. ft. $102
2018-01-09 Single Family Traditional 7323 River Pines Drive Cypress, TX 77433 $131,900 1,108 sq. ft. 4,356 sq. ft. $119
2018-01-08 Single Family Traditional 9162 Monarch Field Lane Cypress, TX 77433 $245,000 2,138 sq. ft. 6,970 sq. ft. $115
2018-01-08 Single Family Traditional 13426 Marblepointe Lane Cypress, TX 77429 $264,999 2,912 sq. ft. 6,534 sq. ft. $91
2018-01-08 Single Family Traditional 16510 Winchester Grove Cypress, TX 77447 $335,127 2,877 sq. ft. $116
2018-01-08 Single Family Traditional 16831 Gypsy Red Drive Cypress, TX 77433 $469,900 3,563 sq. ft. 10,454 sq. ft. $132
2018-01-08 Single Family Contemporary/Modern 7726 Galleon Field Lane Cypress, TX 77433 $145,000 2,180 sq. ft. 5,227 sq. ft. $67
2018-01-08 Single Family Traditional 16411 Prairie Haven Court Cypress, TX 77429 $224,000 2,691 sq. ft. 10,890 sq. ft. $83
2018-01-08 Single Family Contemporary/Modern 20610 Keegans Ledge Lane Cypress, TX 77433 $224,900 2,350 sq. ft. 5,663 sq. ft. $96
2018-01-08 Single Family Traditional 14107 Blair Ridge Drive Cypress, TX 77429 $397,900 3,545 sq. ft. 9,148 sq. ft. $112
2018-01-08 Single Family Traditional 14323 Spyglen Lane Cypress, TX 77429 $349,000 3,615 sq. ft. 8,276 sq. ft. $97
2018-01-08 Single Family Traditional 19507 Hope Springs Drive Cypress, TX 77433 $600,999 4,542 sq. ft. 14,810 sq. ft. $132
2018-01-07 Single Family Traditional 20014 Rocky Trace Lane Cypress, TX 77433 $180,000 3,204 sq. ft. 5,663 sq. ft. $56
2018-01-07 Single Family Traditional 7903 Chatham Springs Lane Cypress, TX 77433 $180,000 3,206 sq. ft. 6,970 sq. ft. $56
2018-01-07 Single Family Traditional 19543 Mills Glen Drive Cypress, TX 77433 $339,900 3,139 sq. ft. 6,534 sq. ft. $108
2018-01-07 Single Family Contemporary/Modern 19015 Triple Creek Lane Cypress, TX 77433 $350,000 6,098 sq. ft.
2018-01-07 Single Family Mediterranean; Traditional 11811 Lilac Valley Cypress, TX 77433 $421,900 3,860 sq. ft. 8,276 sq. ft. $109
2018-01-07 Single Family Traditional 8323 Sedona Ridge Drive Cypress, TX 77433 $229,900 2,206 sq. ft. 7,405 sq. ft. $104
2018-01-07 Single Family Traditional 17915 Alora Springs Trace Cypress, TX 77433 $306,900 2,332 sq. ft. 12,197 sq. ft. $132
2018-01-07 Single Family Traditional 18106 Alora Springs Trace Cypress, TX 77433 $290,900 2,343 sq. ft. 6,098 sq. ft. $124
2018-01-07 Single Family Traditional 18110 Alora Springs Trace Cypress, TX 77433 $246,900 1,697 sq. ft. 6,098 sq. ft. $145
2018-01-07 Single Family Traditional 15022 Terra Point Drive Cypress, TX 77429 $389,500 3,989 sq. ft. 21,780 sq. ft. $98
2018-01-06 Single Family Traditional 19962 Sutton Falls Drive Cypress, TX 77433 $120,000 1,200 sq. ft. 4,356 sq. ft. $100
2018-01-06 Single Family Traditional 20631 Tulip Blossom Court Cypress, TX 77433 $208,000 1,987 sq. ft. 5,663 sq. ft. $105
2018-01-06 Single Family Other Style 19703 Cornerstone Arbor Drive Cypress, TX 77433 $589,000 5,680 sq. ft. 12,632 sq. ft. $104
2018-01-06 Single Family Other Style 15538 Lady Shery Lane Cypress, TX 77429 $194,500 1,732 sq. ft. 5,663 sq. ft. $112
2018-01-06 Single Family Traditional 20726 Blue Hyacinth Drive Cypress, TX 77433 $299,950 2,969 sq. ft. 5,663 sq. ft. $101
2018-01-06 Single Family Traditional 12010 Forest Moon Drive Cypress, TX 77433 $329,000 3,292 sq. ft. 7,405 sq. ft. $100
2018-01-06 Single Family Traditional 15814 Brett Creek Court Cypress, TX 77429 $183,000 1,870 sq. ft. 4,356 sq. ft. $98
2018-01-06 Single Family Traditional 17322 Morgans Lake Dr Cypress, TX 77433 $439,000 3,760 sq. ft. $117
2018-01-06 Single Family Traditional 15703 Chapel Lake Drive Cypress, TX 77429 $219,900 2,401 sq. ft. 7,841 sq. ft. $92
2018-01-05 Single Family Traditional 11703 Edenstone Drive Cypress, TX 77429 $254,000 3,525 sq. ft. 5,227 sq. ft. $72
2018-01-05 Single Family Traditional 19918 Songlark Circle Cypress, TX 77433 $333,900 2,529 sq. ft. 8,276 sq. ft. $132
2018-01-05 Single Family Traditional 9119 Brampton Mill Court Cypress, TX 77433 $343,900 2,504 sq. ft. 9,148 sq. ft. $137
2018-01-05 Single Family Traditional 9243 Lakeshores Lagoon Lane Cypress, TX 77433 $349,900 2,941 sq. ft. 13,939 sq. ft. $119
2018-01-05 Single Family Traditional 19310 Dawntreader Drive Cypress, TX 77429 $210,000 3,284 sq. ft. 5,663 sq. ft. $64
2018-01-05 Single Family Traditional 13806 Nathan Ridge Lane Cypress, TX 77429 $505,000 4,470 sq. ft. 18,731 sq. ft. $113
2018-01-05 Single Family Traditional 12819 Mason Terrace Lane Cypress, TX 77433 $219,000 1,957 sq. ft. 6,534 sq. ft. $112
2018-01-05 Single Family Traditional 10906 Lyndbrook Lane Cypress, TX 77433 $169,900 1,699 sq. ft. 6,534 sq. ft. $100
2018-01-05 Single Family Traditional 15410 Paloma Crossing Court Cypress, TX 77429 $219,900 2,341 sq. ft. 7,841 sq. ft. $94
2018-01-05 Single Family Traditional 13207 Golden Valley Drive Cypress, TX 77429 $320,000 3,330 sq. ft. 9,148 sq. ft. $96
2018-01-05 Single Family Traditional 15210 Gentle Breeze Court Cypress, TX 77429 $429,000 3,800 sq. ft. 14,810 sq. ft. $113
2018-01-05 Single Family Traditional 18922 Windhaven Terrace Trail Cypress, TX 77433 $239,900 2,469 sq. ft. 12,197 sq. ft. $97
2018-01-05 Single Family Traditional 12602 Ravens Chase Lane Cypress, TX 77429 $250,000 2,804 sq. ft. 7,405 sq. ft. $89
2018-01-04 Single Family Split Level 12702 Craigwood Lane Cypress, TX 77429 $116,000 2,011 sq. ft. 18,295 sq. ft. $58
2018-01-04 Single Family Traditional 26315 Ridgefield Park Lane Cypress, TX 77433 $495,000 3,926 sq. ft. 13,504 sq. ft. $126